sensor_id;sensor_type;location;lat;lon;timestamp;P1;durP1;ratioP1;P2;durP2;ratioP2
15498;SDS011;7851;52.260;6.030;2023-11-21T00:01:02;46.6;;;42.1;;
15498;SDS011;7851;52.260;6.030;2023-11-21T00:01:18;47.9;;;43.3;;
15498;SDS011;7851;52.260;6.030;2023-11-21T00:02:18;47.7;;;43.2;;
15498;SDS011;7851;52.260;6.030;2023-11-21T00:03:18;49.3;;;44.8;;
15498;SDS011;7851;52.260;6.030;2023-11-21T00:04:18;45.3;;;41.2;;
15498;SDS011;7851;52.260;6.030;2023-11-21T00:05:18;50.8;;;45.9;;
15498;SDS011;7851;52.260;6.030;2023-11-21T00:06:18;47;;;43;;
15498;SDS011;7851;52.260;6.030;2023-11-21T00:07:18;48.3;;;44;;
15498;SDS011;7851;52.260;6.030;2023-11-21T00:08:18;50.4;;;45.6;;
15498;SDS011;7851;52.260;6.030;2023-11-21T00:09:18;48.7;;;44;;
15498;SDS011;7851;52.260;6.030;2023-11-21T00:10:18;49.5;;;44.7;;
15498;SDS011;7851;52.260;6.030;2023-11-21T00:11:18;54.9;;;49.8;;
15498;SDS011;7851;52.260;6.030;2023-11-21T00:12:18;53;;;48;;
15498;SDS011;7851;52.260;6.030;2023-11-21T00:13:18;53.4;;;48.4;;
15498;SDS011;7851;52.260;6.030;2023-11-21T00:14:18;52.8;;;48.3;;
15498;SDS011;7851;52.260;6.030;2023-11-21T00:15:18;52.3;;;47.7;;
15498;SDS011;7851;52.260;6.030;2023-11-21T00:16:18;45.3;;;41.3;;
15498;SDS011;7851;52.260;6.030;2023-11-21T00:17:18;43.8;;;40.1;;
15498;SDS011;7851;52.260;6.030;2023-11-21T00:18:18;45.3;;;40.9;;
15498;SDS011;7851;52.260;6.030;2023-11-21T00:19:18;43.9;;;40;;
15498;SDS011;7851;52.260;6.030;2023-11-21T00:20:18;44.9;;;40.5;;
15498;SDS011;7851;52.260;6.030;2023-11-21T00:21:18;43.3;;;39.4;;
15498;SDS011;7851;52.260;6.030;2023-11-21T00:22:18;43;;;39.2;;
15498;SDS011;7851;52.260;6.030;2023-11-21T00:23:18;41.8;;;38.1;;
15498;SDS011;7851;52.260;6.030;2023-11-21T00:24:18;44.3;;;40.3;;
15498;SDS011;7851;52.260;6.030;2023-11-21T00:25:18;41.7;;;37.9;;
15498;SDS011;7851;52.260;6.030;2023-11-21T00:26:18;42.3;;;38.4;;
15498;SDS011;7851;52.260;6.030;2023-11-21T00:27:18;42.9;;;39.3;;
15498;SDS011;7851;52.260;6.030;2023-11-21T00:28:18;43.9;;;39.8;;
15498;SDS011;7851;52.260;6.030;2023-11-21T00:29:18;42.4;;;38.7;;
15498;SDS011;7851;52.260;6.030;2023-11-21T00:30:18;41.8;;;38;;
15498;SDS011;7851;52.260;6.030;2023-11-21T00:31:18;42.8;;;38.9;;
15498;SDS011;7851;52.260;6.030;2023-11-21T00:32:18;42.8;;;39.1;;
15498;SDS011;7851;52.260;6.030;2023-11-21T00:33:18;41.1;;;37.8;;
15498;SDS011;7851;52.260;6.030;2023-11-21T00:34:18;43.4;;;39.7;;
15498;SDS011;7851;52.260;6.030;2023-11-21T00:35:18;43.4;;;39.4;;
15498;SDS011;7851;52.260;6.030;2023-11-21T00:36:18;43.9;;;40;;
15498;SDS011;7851;52.260;6.030;2023-11-21T00:37:18;43;;;39.1;;
15498;SDS011;7851;52.260;6.030;2023-11-21T00:38:18;43.5;;;39.7;;
15498;SDS011;7851;52.260;6.030;2023-11-21T00:39:18;44;;;39.9;;
15498;SDS011;7851;52.260;6.030;2023-11-21T00:40:18;42.3;;;38.4;;
15498;SDS011;7851;52.260;6.030;2023-11-21T00:41:18;43.1;;;39.2;;
15498;SDS011;7851;52.260;6.030;2023-11-21T00:42:18;42.3;;;38.3;;
15498;SDS011;7851;52.260;6.030;2023-11-21T00:43:18;43.2;;;39.5;;
15498;SDS011;7851;52.260;6.030;2023-11-21T00:44:18;41.2;;;37.7;;
15498;SDS011;7851;52.260;6.030;2023-11-21T00:45:18;41.2;;;37.6;;
15498;SDS011;7851;52.260;6.030;2023-11-21T00:46:18;40.3;;;36.6;;
15498;SDS011;7851;52.260;6.030;2023-11-21T00:47:18;42;;;38.1;;
15498;SDS011;7851;52.260;6.030;2023-11-21T00:48:18;40.8;;;37.3;;
15498;SDS011;7851;52.260;6.030;2023-11-21T00:49:18;41.9;;;38.2;;
15498;SDS011;7851;52.260;6.030;2023-11-21T00:50:18;42.5;;;38.6;;
15498;SDS011;7851;52.260;6.030;2023-11-21T00:51:18;40.6;;;37.2;;
15498;SDS011;7851;52.260;6.030;2023-11-21T00:52:18;40.2;;;36.5;;
15498;SDS011;7851;52.260;6.030;2023-11-21T00:53:18;41.3;;;37.7;;
15498;SDS011;7851;52.260;6.030;2023-11-21T00:54:18;40.4;;;36.9;;
15498;SDS011;7851;52.260;6.030;2023-11-21T00:55:18;40.5;;;36.6;;
15498;SDS011;7851;52.260;6.030;2023-11-21T00:56:18;39.9;;;35.9;;
15498;SDS011;7851;52.260;6.030;2023-11-21T00:57:18;38.9;;;35.5;;
15498;SDS011;7851;52.260;6.030;2023-11-21T00:58:18;38;;;34.7;;
15498;SDS011;7851;52.260;6.030;2023-11-21T00:59:18;39.1;;;35.4;;
15498;SDS011;7851;52.260;6.030;2023-11-21T01:00:18;36.8;;;33.7;;
15498;SDS011;7851;52.260;6.030;2023-11-21T01:01:18;37.5;;;34.2;;
15498;SDS011;7851;52.260;6.030;2023-11-21T01:02:18;39.9;;;36.3;;
15498;SDS011;7851;52.260;6.030;2023-11-21T01:03:18;40.2;;;36.7;;
15498;SDS011;7851;52.260;6.030;2023-11-21T01:04:18;39.9;;;36.4;;
15498;SDS011;7851;52.260;6.030;2023-11-21T01:05:18;40.7;;;37.3;;
15498;SDS011;7851;52.260;6.030;2023-11-21T01:06:18;39.3;;;35.8;;
15498;SDS011;7851;52.260;6.030;2023-11-21T01:07:18;38.5;;;35;;
15498;SDS011;7851;52.260;6.030;2023-11-21T01:08:18;38.9;;;35.4;;
15498;SDS011;7851;52.260;6.030;2023-11-21T01:09:18;39.9;;;36.4;;
15498;SDS011;7851;52.260;6.030;2023-11-21T01:10:18;40.5;;;37;;
15498;SDS011;7851;52.260;6.030;2023-11-21T01:11:18;38.6;;;35.4;;
15498;SDS011;7851;52.260;6.030;2023-11-21T01:12:18;42.6;;;39.2;;
15498;SDS011;7851;52.260;6.030;2023-11-21T01:13:18;43.9;;;40.1;;
15498;SDS011;7851;52.260;6.030;2023-11-21T01:14:18;43.6;;;40;;
15498;SDS011;7851;52.260;6.030;2023-11-21T01:15:18;43.2;;;39.7;;
15498;SDS011;7851;52.260;6.030;2023-11-21T01:16:18;45.5;;;41.2;;
15498;SDS011;7851;52.260;6.030;2023-11-21T01:17:18;42.9;;;39.3;;
15498;SDS011;7851;52.260;6.030;2023-11-21T01:18:18;41.5;;;38;;
15498;SDS011;7851;52.260;6.030;2023-11-21T01:19:18;43.5;;;39.7;;
15498;SDS011;7851;52.260;6.030;2023-11-21T01:20:18;44.7;;;41;;
15498;SDS011;7851;52.260;6.030;2023-11-21T01:21:18;43.3;;;39.8;;
15498;SDS011;7851;52.260;6.030;2023-11-21T01:22:18;40.1;;;36.5;;
15498;SDS011;7851;52.260;6.030;2023-11-21T01:23:18;40.8;;;37;;
15498;SDS011;7851;52.260;6.030;2023-11-21T01:24:18;41.9;;;37.4;;
15498;SDS011;7851;52.260;6.030;2023-11-21T01:25:18;41.8;;;37.8;;
15498;SDS011;7851;52.260;6.030;2023-11-21T01:26:18;47;;;42.9;;
15498;SDS011;7851;52.260;6.030;2023-11-21T01:27:18;46.1;;;42.2;;
15498;SDS011;7851;52.260;6.030;2023-11-21T01:28:18;43.2;;;39.6;;
15498;SDS011;7851;52.260;6.030;2023-11-21T01:29:18;46.9;;;42.6;;
15498;SDS011;7851;52.260;6.030;2023-11-21T01:30:18;47.1;;;43;;
15498;SDS011;7851;52.260;6.030;2023-11-21T01:31:18;46.4;;;42.4;;
15498;SDS011;7851;52.260;6.030;2023-11-21T01:32:18;46.1;;;42.2;;
15498;SDS011;7851;52.260;6.030;2023-11-21T01:33:18;44.1;;;40.5;;
15498;SDS011;7851;52.260;6.030;2023-11-21T01:34:18;47.1;;;43.2;;
15498;SDS011;7851;52.260;6.030;2023-11-21T01:35:18;48.3;;;44.1;;
15498;SDS011;7851;52.260;6.030;2023-11-21T01:36:18;49.4;;;45.2;;
15498;SDS011;7851;52.260;6.030;2023-11-21T01:37:18;43.2;;;39.3;;
15498;SDS011;7851;52.260;6.030;2023-11-21T01:38:18;43.6;;;39.6;;
15498;SDS011;7851;52.260;6.030;2023-11-21T01:39:18;44;;;40.3;;
15498;SDS011;7851;52.260;6.030;2023-11-21T01:40:18;43.7;;;39.9;;
15498;SDS011;7851;52.260;6.030;2023-11-21T01:41:18;45.9;;;41.7;;
15498;SDS011;7851;52.260;6.030;2023-11-21T01:42:18;46.6;;;42.2;;
15498;SDS011;7851;52.260;6.030;2023-11-21T01:43:18;44.8;;;40.9;;
15498;SDS011;7851;52.260;6.030;2023-11-21T01:44:18;47.5;;;43;;
15498;SDS011;7851;52.260;6.030;2023-11-21T01:45:18;46.4;;;41.9;;
15498;SDS011;7851;52.260;6.030;2023-11-21T01:46:18;47;;;42.4;;
15498;SDS011;7851;52.260;6.030;2023-11-21T01:47:18;42.7;;;38.5;;
15498;SDS011;7851;52.260;6.030;2023-11-21T01:48:18;45.7;;;41.5;;
15498;SDS011;7851;52.260;6.030;2023-11-21T01:49:18;45.8;;;41.2;;
15498;SDS011;7851;52.260;6.030;2023-11-21T01:50:18;44.2;;;40.1;;
15498;SDS011;7851;52.260;6.030;2023-11-21T01:51:18;51.6;;;42.1;;
15498;SDS011;7851;52.260;6.030;2023-11-21T01:52:18;45.8;;;41.4;;
15498;SDS011;7851;52.260;6.030;2023-11-21T01:53:18;44.4;;;40.1;;
15498;SDS011;7851;52.260;6.030;2023-11-21T01:54:18;45.1;;;40.6;;
15498;SDS011;7851;52.260;6.030;2023-11-21T01:55:18;45.4;;;40.7;;
15498;SDS011;7851;52.260;6.030;2023-11-21T01:56:18;44.9;;;40.4;;
15498;SDS011;7851;52.260;6.030;2023-11-21T01:57:19;42;;;38.3;;
15498;SDS011;7851;52.260;6.030;2023-11-21T01:58:18;44.6;;;40.6;;
15498;SDS011;7851;52.260;6.030;2023-11-21T01:59:20;48.1;;;42.9;;
15498;SDS011;7851;52.260;6.030;2023-11-21T02:00:18;45.8;;;41.3;;
15498;SDS011;7851;52.260;6.030;2023-11-21T02:01:18;43.2;;;39.1;;
15498;SDS011;7851;52.260;6.030;2023-11-21T02:02:18;45.5;;;40.8;;
15498;SDS011;7851;52.260;6.030;2023-11-21T02:03:18;45.1;;;40.7;;
15498;SDS011;7851;52.260;6.030;2023-11-21T02:04:18;41.9;;;38;;
15498;SDS011;7851;52.260;6.030;2023-11-21T02:05:19;42;;;37.9;;
15498;SDS011;7851;52.260;6.030;2023-11-21T02:06:18;40.3;;;36.7;;
15498;SDS011;7851;52.260;6.030;2023-11-21T02:07:18;44.2;;;39.8;;
15498;SDS011;7851;52.260;6.030;2023-11-21T02:08:18;43.1;;;39.3;;
15498;SDS011;7851;52.260;6.030;2023-11-21T02:09:22;43.9;;;39.8;;
15498;SDS011;7851;52.260;6.030;2023-11-21T02:10:18;43;;;39;;
15498;SDS011;7851;52.260;6.030;2023-11-21T02:11:18;43.9;;;39.6;;
15498;SDS011;7851;52.260;6.030;2023-11-21T02:12:18;45;;;40.3;;
15498;SDS011;7851;52.260;6.030;2023-11-21T02:13:18;44.2;;;40;;
15498;SDS011;7851;52.260;6.030;2023-11-21T02:14:18;41.9;;;38.1;;
15498;SDS011;7851;52.260;6.030;2023-11-21T02:15:18;41.1;;;37.5;;
15498;SDS011;7851;52.260;6.030;2023-11-21T02:16:18;41.5;;;37.6;;
15498;SDS011;7851;52.260;6.030;2023-11-21T02:17:18;42.7;;;38.5;;
15498;SDS011;7851;52.260;6.030;2023-11-21T02:18:18;41.8;;;38.1;;
15498;SDS011;7851;52.260;6.030;2023-11-21T02:19:18;41.2;;;37.2;;
15498;SDS011;7851;52.260;6.030;2023-11-21T02:20:18;42.1;;;38.2;;
15498;SDS011;7851;52.260;6.030;2023-11-21T02:21:18;41.8;;;37.9;;
15498;SDS011;7851;52.260;6.030;2023-11-21T02:22:18;42;;;37.9;;
15498;SDS011;7851;52.260;6.030;2023-11-21T02:23:18;42;;;38.2;;
15498;SDS011;7851;52.260;6.030;2023-11-21T02:24:18;43;;;38.6;;
15498;SDS011;7851;52.260;6.030;2023-11-21T02:25:18;42;;;38.4;;
15498;SDS011;7851;52.260;6.030;2023-11-21T02:26:18;41.3;;;37.5;;
15498;SDS011;7851;52.260;6.030;2023-11-21T02:27:18;40.7;;;37.1;;
15498;SDS011;7851;52.260;6.030;2023-11-21T02:28:18;41.3;;;37.7;;
15498;SDS011;7851;52.260;6.030;2023-11-21T02:29:18;42.5;;;38.8;;
15498;SDS011;7851;52.260;6.030;2023-11-21T02:30:18;42.2;;;38.4;;
15498;SDS011;7851;52.260;6.030;2023-11-21T02:31:18;42.7;;;38.8;;
15498;SDS011;7851;52.260;6.030;2023-11-21T02:32:18;43.9;;;40.1;;
15498;SDS011;7851;52.260;6.030;2023-11-21T02:33:18;44;;;40;;
15498;SDS011;7851;52.260;6.030;2023-11-21T02:34:18;42.8;;;38.9;;
15498;SDS011;7851;52.260;6.030;2023-11-21T02:35:18;43.2;;;39.3;;
15498;SDS011;7851;52.260;6.030;2023-11-21T02:36:18;43.6;;;39.5;;
15498;SDS011;7851;52.260;6.030;2023-11-21T02:37:18;41.7;;;38.1;;
15498;SDS011;7851;52.260;6.030;2023-11-21T02:38:18;43.1;;;39.3;;
15498;SDS011;7851;52.260;6.030;2023-11-21T02:39:18;45.1;;;40.3;;
15498;SDS011;7851;52.260;6.030;2023-11-21T02:40:18;42;;;38.5;;
15498;SDS011;7851;52.260;6.030;2023-11-21T02:41:18;49.5;;;45.3;;
15498;SDS011;7851;52.260;6.030;2023-11-21T02:42:18;47.4;;;43.8;;
15498;SDS011;7851;52.260;6.030;2023-11-21T02:43:18;51;;;46;;
15498;SDS011;7851;52.260;6.030;2023-11-21T02:44:18;49;;;45;;
15498;SDS011;7851;52.260;6.030;2023-11-21T02:45:18;48.4;;;44.6;;
15498;SDS011;7851;52.260;6.030;2023-11-21T02:46:18;48.7;;;44.5;;
15498;SDS011;7851;52.260;6.030;2023-11-21T02:47:18;42.7;;;38.6;;
15498;SDS011;7851;52.260;6.030;2023-11-21T02:48:18;41.5;;;37.7;;
15498;SDS011;7851;52.260;6.030;2023-11-21T02:49:18;40.4;;;36.9;;
15498;SDS011;7851;52.260;6.030;2023-11-21T02:50:18;41.2;;;37.6;;
15498;SDS011;7851;52.260;6.030;2023-11-21T02:51:18;41.1;;;37.1;;
15498;SDS011;7851;52.260;6.030;2023-11-21T02:52:18;41.1;;;37.1;;
15498;SDS011;7851;52.260;6.030;2023-11-21T02:53:18;41.3;;;37.2;;
15498;SDS011;7851;52.260;6.030;2023-11-21T02:54:18;39.2;;;35.7;;
15498;SDS011;7851;52.260;6.030;2023-11-21T02:55:18;41.4;;;37.6;;
15498;SDS011;7851;52.260;6.030;2023-11-21T02:56:18;41.2;;;37.5;;
15498;SDS011;7851;52.260;6.030;2023-11-21T02:57:18;40.1;;;36.6;;
15498;SDS011;7851;52.260;6.030;2023-11-21T02:58:18;41.6;;;37.9;;
15498;SDS011;7851;52.260;6.030;2023-11-21T02:59:18;40.4;;;36.9;;
15498;SDS011;7851;52.260;6.030;2023-11-21T03:00:18;43.8;;;38.7;;
15498;SDS011;7851;52.260;6.030;2023-11-21T03:01:18;45.3;;;40.9;;
15498;SDS011;7851;52.260;6.030;2023-11-21T03:02:18;43.2;;;39.5;;
15498;SDS011;7851;52.260;6.030;2023-11-21T03:03:18;42;;;38.3;;
15498;SDS011;7851;52.260;6.030;2023-11-21T03:04:18;44.6;;;40.4;;
15498;SDS011;7851;52.260;6.030;2023-11-21T03:05:18;44.5;;;40.4;;
15498;SDS011;7851;52.260;6.030;2023-11-21T03:06:18;43.7;;;39.7;;
15498;SDS011;7851;52.260;6.030;2023-11-21T03:07:18;42.7;;;38.8;;
15498;SDS011;7851;52.260;6.030;2023-11-21T03:08:18;42.7;;;38.8;;
15498;SDS011;7851;52.260;6.030;2023-11-21T03:09:18;44.4;;;40.4;;
15498;SDS011;7851;52.260;6.030;2023-11-21T03:10:18;45;;;41.1;;
15498;SDS011;7851;52.260;6.030;2023-11-21T03:11:18;43.6;;;39.6;;
15498;SDS011;7851;52.260;6.030;2023-11-21T03:12:18;46;;;41.7;;
15498;SDS011;7851;52.260;6.030;2023-11-21T03:13:18;42;;;38;;
15498;SDS011;7851;52.260;6.030;2023-11-21T03:14:18;43.4;;;39.3;;
15498;SDS011;7851;52.260;6.030;2023-11-21T03:15:18;40.4;;;36.4;;
15498;SDS011;7851;52.260;6.030;2023-11-21T03:16:18;42.6;;;39;;
15498;SDS011;7851;52.260;6.030;2023-11-21T03:17:18;40.3;;;36.4;;
15498;SDS011;7851;52.260;6.030;2023-11-21T03:18:18;42.5;;;37.7;;
15498;SDS011;7851;52.260;6.030;2023-11-21T03:19:18;43.6;;;39.4;;
15498;SDS011;7851;52.260;6.030;2023-11-21T03:20:18;41.9;;;38.2;;
15498;SDS011;7851;52.260;6.030;2023-11-21T03:21:18;41.6;;;37.8;;
15498;SDS011;7851;52.260;6.030;2023-11-21T03:22:18;43.7;;;39.6;;
15498;SDS011;7851;52.260;6.030;2023-11-21T03:23:18;43.8;;;39.8;;
15498;SDS011;7851;52.260;6.030;2023-11-21T03:24:18;41.7;;;38.1;;
15498;SDS011;7851;52.260;6.030;2023-11-21T03:25:18;42.8;;;37.4;;
15498;SDS011;7851;52.260;6.030;2023-11-21T03:26:18;43.5;;;39.7;;
15498;SDS011;7851;52.260;6.030;2023-11-21T03:27:18;42.6;;;38.8;;
15498;SDS011;7851;52.260;6.030;2023-11-21T03:28:18;42.3;;;38.5;;
15498;SDS011;7851;52.260;6.030;2023-11-21T03:29:18;43.4;;;39.7;;
15498;SDS011;7851;52.260;6.030;2023-11-21T03:30:18;43.9;;;39.9;;
15498;SDS011;7851;52.260;6.030;2023-11-21T03:31:18;43.3;;;39.3;;
15498;SDS011;7851;52.260;6.030;2023-11-21T03:32:18;44.5;;;40.5;;
15498;SDS011;7851;52.260;6.030;2023-11-21T03:33:18;44.5;;;40.8;;
15498;SDS011;7851;52.260;6.030;2023-11-21T03:34:22;44.4;;;40.5;;
15498;SDS011;7851;52.260;6.030;2023-11-21T03:35:18;46;;;42.1;;
15498;SDS011;7851;52.260;6.030;2023-11-21T03:36:18;46;;;41.6;;
15498;SDS011;7851;52.260;6.030;2023-11-21T03:37:18;45.2;;;40.9;;
15498;SDS011;7851;52.260;6.030;2023-11-21T03:38:18;45;;;41;;
15498;SDS011;7851;52.260;6.030;2023-11-21T03:39:19;44.1;;;40.1;;
15498;SDS011;7851;52.260;6.030;2023-11-21T03:40:18;44.7;;;40.7;;
15498;SDS011;7851;52.260;6.030;2023-11-21T03:41:18;44.7;;;40.7;;
15498;SDS011;7851;52.260;6.030;2023-11-21T03:42:18;43.6;;;39.6;;
15498;SDS011;7851;52.260;6.030;2023-11-21T03:43:18;46.4;;;41.8;;
15498;SDS011;7851;52.260;6.030;2023-11-21T03:44:18;43.9;;;39.6;;
15498;SDS011;7851;52.260;6.030;2023-11-21T03:45:18;44;;;40;;
15498;SDS011;7851;52.260;6.030;2023-11-21T03:46:18;43.1;;;39;;
15498;SDS011;7851;52.260;6.030;2023-11-21T03:47:18;41.9;;;38;;
15498;SDS011;7851;52.260;6.030;2023-11-21T03:48:18;44;;;39.9;;
15498;SDS011;7851;52.260;6.030;2023-11-21T03:49:18;45.1;;;40.9;;
15498;SDS011;7851;52.260;6.030;2023-11-21T03:50:18;44.9;;;40.9;;
15498;SDS011;7851;52.260;6.030;2023-11-21T03:51:18;44.4;;;40;;
15498;SDS011;7851;52.260;6.030;2023-11-21T03:52:18;46.2;;;41.9;;
15498;SDS011;7851;52.260;6.030;2023-11-21T03:53:18;45.8;;;41.8;;
15498;SDS011;7851;52.260;6.030;2023-11-21T03:54:18;52.5;;;47.3;;
15498;SDS011;7851;52.260;6.030;2023-11-21T03:55:18;53.1;;;48.8;;
15498;SDS011;7851;52.260;6.030;2023-11-21T03:56:18;55.7;;;51;;
15498;SDS011;7851;52.260;6.030;2023-11-21T03:57:18;55.2;;;50.6;;
15498;SDS011;7851;52.260;6.030;2023-11-21T03:58:18;56;;;51.5;;
15498;SDS011;7851;52.260;6.030;2023-11-21T03:59:18;50.2;;;45.9;;
15498;SDS011;7851;52.260;6.030;2023-11-21T04:00:18;46;;;42.1;;
15498;SDS011;7851;52.260;6.030;2023-11-21T04:01:19;47.2;;;43;;
15498;SDS011;7851;52.260;6.030;2023-11-21T04:02:18;48.6;;;43.8;;
15498;SDS011;7851;52.260;6.030;2023-11-21T04:03:18;48.3;;;44.1;;
15498;SDS011;7851;52.260;6.030;2023-11-21T04:04:18;46.7;;;42.8;;
15498;SDS011;7851;52.260;6.030;2023-11-21T04:05:19;46.3;;;42.5;;
15498;SDS011;7851;52.260;6.030;2023-11-21T04:06:18;48.8;;;44.8;;
15498;SDS011;7851;52.260;6.030;2023-11-21T04:07:18;49.3;;;45.1;;
15498;SDS011;7851;52.260;6.030;2023-11-21T04:08:18;47.9;;;43.8;;
15498;SDS011;7851;52.260;6.030;2023-11-21T04:09:18;48.5;;;44.3;;
15498;SDS011;7851;52.260;6.030;2023-11-21T04:10:18;46.5;;;42.6;;
15498;SDS011;7851;52.260;6.030;2023-11-21T04:11:18;49.7;;;45.7;;
15498;SDS011;7851;52.260;6.030;2023-11-21T04:12:18;51.4;;;46.8;;
15498;SDS011;7851;52.260;6.030;2023-11-21T04:13:18;50.3;;;46.2;;
15498;SDS011;7851;52.260;6.030;2023-11-21T04:14:18;50.8;;;46.7;;
15498;SDS011;7851;52.260;6.030;2023-11-21T04:15:18;49.3;;;44.9;;
15498;SDS011;7851;52.260;6.030;2023-11-21T04:16:18;48.1;;;44.2;;
15498;SDS011;7851;52.260;6.030;2023-11-21T04:17:18;50.3;;;46;;
15498;SDS011;7851;52.260;6.030;2023-11-21T04:18:18;49.4;;;45.3;;
15498;SDS011;7851;52.260;6.030;2023-11-21T04:19:18;51.6;;;46.6;;
15498;SDS011;7851;52.260;6.030;2023-11-21T04:20:18;48.5;;;44.3;;
15498;SDS011;7851;52.260;6.030;2023-11-21T04:21:18;48.5;;;44.4;;
15498;SDS011;7851;52.260;6.030;2023-11-21T04:22:18;50.7;;;46.5;;
15498;SDS011;7851;52.260;6.030;2023-11-21T04:23:18;50.8;;;46.4;;
15498;SDS011;7851;52.260;6.030;2023-11-21T04:24:18;48.6;;;44.6;;
15498;SDS011;7851;52.260;6.030;2023-11-21T04:25:18;47.2;;;43.1;;
15498;SDS011;7851;52.260;6.030;2023-11-21T04:26:18;49.8;;;45.6;;
15498;SDS011;7851;52.260;6.030;2023-11-21T04:27:18;51.9;;;47;;
15498;SDS011;7851;52.260;6.030;2023-11-21T04:28:18;51.2;;;46.5;;
15498;SDS011;7851;52.260;6.030;2023-11-21T04:29:18;50;;;45.7;;
15498;SDS011;7851;52.260;6.030;2023-11-21T04:30:18;50.9;;;46.6;;
15498;SDS011;7851;52.260;6.030;2023-11-21T04:31:18;50;;;45.8;;
15498;SDS011;7851;52.260;6.030;2023-11-21T04:32:18;50.5;;;46.4;;
15498;SDS011;7851;52.260;6.030;2023-11-21T04:33:18;51.7;;;47.4;;
15498;SDS011;7851;52.260;6.030;2023-11-21T04:34:18;47.1;;;43.4;;
15498;SDS011;7851;52.260;6.030;2023-11-21T04:35:18;51;;;46.6;;
15498;SDS011;7851;52.260;6.030;2023-11-21T04:36:18;49.8;;;45.7;;
15498;SDS011;7851;52.260;6.030;2023-11-21T04:37:18;48.3;;;44.5;;
15498;SDS011;7851;52.260;6.030;2023-11-21T04:38:18;51.2;;;47.1;;
15498;SDS011;7851;52.260;6.030;2023-11-21T04:39:18;53;;;48.7;;
15498;SDS011;7851;52.260;6.030;2023-11-21T04:40:18;52.2;;;48.1;;
15498;SDS011;7851;52.260;6.030;2023-11-21T04:41:18;54.4;;;50;;
15498;SDS011;7851;52.260;6.030;2023-11-21T04:42:18;52;;;47.7;;
15498;SDS011;7851;52.260;6.030;2023-11-21T04:43:18;46.7;;;42.7;;
15498;SDS011;7851;52.260;6.030;2023-11-21T04:44:18;48;;;43.4;;
15498;SDS011;7851;52.260;6.030;2023-11-21T04:45:18;50.3;;;45.8;;
15498;SDS011;7851;52.260;6.030;2023-11-21T04:46:18;49.3;;;45.3;;
15498;SDS011;7851;52.260;6.030;2023-11-21T04:47:18;47.6;;;43.3;;
15498;SDS011;7851;52.260;6.030;2023-11-21T04:48:18;47;;;43;;
15498;SDS011;7851;52.260;6.030;2023-11-21T04:49:18;47;;;42.9;;
15498;SDS011;7851;52.260;6.030;2023-11-21T04:50:18;48.4;;;44.4;;
15498;SDS011;7851;52.260;6.030;2023-11-21T04:51:18;45.4;;;41.8;;
15498;SDS011;7851;52.260;6.030;2023-11-21T04:52:18;47.9;;;44;;
15498;SDS011;7851;52.260;6.030;2023-11-21T04:53:18;45;;;41.4;;
15498;SDS011;7851;52.260;6.030;2023-11-21T04:54:18;49.5;;;45.2;;
15498;SDS011;7851;52.260;6.030;2023-11-21T04:55:18;46.3;;;42.5;;
15498;SDS011;7851;52.260;6.030;2023-11-21T04:56:18;48.1;;;44;;
15498;SDS011;7851;52.260;6.030;2023-11-21T04:57:18;48.8;;;44.5;;
15498;SDS011;7851;52.260;6.030;2023-11-21T04:58:18;49.4;;;44.6;;
15498;SDS011;7851;52.260;6.030;2023-11-21T04:59:18;51.4;;;46.6;;
15498;SDS011;7851;52.260;6.030;2023-11-21T05:00:18;49;;;44.8;;
15498;SDS011;7851;52.260;6.030;2023-11-21T05:01:18;47.3;;;42.8;;
15498;SDS011;7851;52.260;6.030;2023-11-21T05:02:18;48.2;;;43.8;;
15498;SDS011;7851;52.260;6.030;2023-11-21T05:03:18;45.7;;;41.8;;
15498;SDS011;7851;52.260;6.030;2023-11-21T05:04:18;49.3;;;45.3;;
15498;SDS011;7851;52.260;6.030;2023-11-21T05:05:18;53.7;;;49;;
15498;SDS011;7851;52.260;6.030;2023-11-21T05:06:18;51.8;;;46.9;;
15498;SDS011;7851;52.260;6.030;2023-11-21T05:07:18;51.4;;;47.1;;
15498;SDS011;7851;52.260;6.030;2023-11-21T05:08:18;52.8;;;47.6;;
15498;SDS011;7851;52.260;6.030;2023-11-21T05:09:18;53.6;;;48.9;;
15498;SDS011;7851;52.260;6.030;2023-11-21T05:10:18;61.2;;;56.4;;
15498;SDS011;7851;52.260;6.030;2023-11-21T05:11:25;58.4;;;53.6;;
15498;SDS011;7851;52.260;6.030;2023-11-21T05:12:18;58;;;53.6;;
15498;SDS011;7851;52.260;6.030;2023-11-21T05:13:18;60.5;;;55.7;;
15498;SDS011;7851;52.260;6.030;2023-11-21T05:14:18;61.4;;;56.5;;
15498;SDS011;7851;52.260;6.030;2023-11-21T05:15:18;56.2;;;51.2;;
15498;SDS011;7851;52.260;6.030;2023-11-21T05:16:18;51.3;;;46.9;;
15498;SDS011;7851;52.260;6.030;2023-11-21T05:17:18;48.5;;;44.2;;
15498;SDS011;7851;52.260;6.030;2023-11-21T05:18:18;52.2;;;47.7;;
15498;SDS011;7851;52.260;6.030;2023-11-21T05:19:18;48.4;;;43.9;;
15498;SDS011;7851;52.260;6.030;2023-11-21T05:20:18;50.6;;;46.1;;
15498;SDS011;7851;52.260;6.030;2023-11-21T05:21:18;47.4;;;43.1;;
15498;SDS011;7851;52.260;6.030;2023-11-21T05:22:18;50.2;;;46;;
15498;SDS011;7851;52.260;6.030;2023-11-21T05:23:18;49.1;;;45;;
15498;SDS011;7851;52.260;6.030;2023-11-21T05:24:18;50.3;;;46.3;;
15498;SDS011;7851;52.260;6.030;2023-11-21T05:25:18;48.5;;;44.3;;
15498;SDS011;7851;52.260;6.030;2023-11-21T05:26:18;53.3;;;48.5;;
15498;SDS011;7851;52.260;6.030;2023-11-21T05:27:18;50.3;;;46.1;;
15498;SDS011;7851;52.260;6.030;2023-11-21T05:28:18;53.7;;;48.4;;
15498;SDS011;7851;52.260;6.030;2023-11-21T05:29:18;52.6;;;47.9;;
15498;SDS011;7851;52.260;6.030;2023-11-21T05:30:18;51.9;;;47.5;;
15498;SDS011;7851;52.260;6.030;2023-11-21T05:31:18;54.6;;;49.9;;
15498;SDS011;7851;52.260;6.030;2023-11-21T05:32:18;50.5;;;45.8;;
15498;SDS011;7851;52.260;6.030;2023-11-21T05:33:18;53.9;;;49.5;;
15498;SDS011;7851;52.260;6.030;2023-11-21T05:34:18;53.2;;;48.9;;
15498;SDS011;7851;52.260;6.030;2023-11-21T05:35:18;55.5;;;50.8;;
15498;SDS011;7851;52.260;6.030;2023-11-21T05:36:18;45.9;;;42.2;;
15498;SDS011;7851;52.260;6.030;2023-11-21T05:37:18;48.5;;;44.6;;
15498;SDS011;7851;52.260;6.030;2023-11-21T05:38:18;51.9;;;47.3;;
15498;SDS011;7851;52.260;6.030;2023-11-21T05:39:18;52;;;47.6;;
15498;SDS011;7851;52.260;6.030;2023-11-21T05:40:18;54.7;;;50;;
15498;SDS011;7851;52.260;6.030;2023-11-21T05:41:18;55.4;;;50.5;;
15498;SDS011;7851;52.260;6.030;2023-11-21T05:42:18;57.6;;;52.9;;
15498;SDS011;7851;52.260;6.030;2023-11-21T05:43:18;52.5;;;48;;
15498;SDS011;7851;52.260;6.030;2023-11-21T05:44:18;55.4;;;50.5;;
15498;SDS011;7851;52.260;6.030;2023-11-21T05:45:18;56.1;;;51.4;;
15498;SDS011;7851;52.260;6.030;2023-11-21T05:46:18;53.6;;;48.6;;
15498;SDS011;7851;52.260;6.030;2023-11-21T05:47:18;59;;;54.1;;
15498;SDS011;7851;52.260;6.030;2023-11-21T05:48:18;56.9;;;52.3;;
15498;SDS011;7851;52.260;6.030;2023-11-21T05:49:18;56.6;;;51.8;;
15498;SDS011;7851;52.260;6.030;2023-11-21T05:50:18;51.8;;;46.7;;
15498;SDS011;7851;52.260;6.030;2023-11-21T05:51:18;48.5;;;44.4;;
15498;SDS011;7851;52.260;6.030;2023-11-21T05:52:18;49.4;;;44.8;;
15498;SDS011;7851;52.260;6.030;2023-11-21T05:53:18;50.2;;;45.8;;
15498;SDS011;7851;52.260;6.030;2023-11-21T05:54:18;49.5;;;45.1;;
15498;SDS011;7851;52.260;6.030;2023-11-21T05:55:18;50.2;;;45.9;;
15498;SDS011;7851;52.260;6.030;2023-11-21T05:56:18;49.1;;;44.8;;
15498;SDS011;7851;52.260;6.030;2023-11-21T05:57:18;51.2;;;46.6;;
15498;SDS011;7851;52.260;6.030;2023-11-21T05:58:18;49.9;;;45.5;;
15498;SDS011;7851;52.260;6.030;2023-11-21T05:59:18;50;;;45.6;;
15498;SDS011;7851;52.260;6.030;2023-11-21T06:00:18;48.6;;;44.4;;
15498;SDS011;7851;52.260;6.030;2023-11-21T06:01:18;47.1;;;43.2;;
15498;SDS011;7851;52.260;6.030;2023-11-21T06:02:18;50.7;;;46.3;;
15498;SDS011;7851;52.260;6.030;2023-11-21T06:03:18;48.3;;;44.4;;
15498;SDS011;7851;52.260;6.030;2023-11-21T06:04:18;47.7;;;43.5;;
15498;SDS011;7851;52.260;6.030;2023-11-21T06:05:18;56.4;;;51.7;;
15498;SDS011;7851;52.260;6.030;2023-11-21T06:06:18;53.6;;;49.3;;
15498;SDS011;7851;52.260;6.030;2023-11-21T06:07:18;56;;;51.4;;
15498;SDS011;7851;52.260;6.030;2023-11-21T06:08:18;54.5;;;49.8;;
15498;SDS011;7851;52.260;6.030;2023-11-21T06:09:18;51.6;;;47.5;;